sensor_id;sensor_type;location;lat;lon;timestamp;P1;durP1;ratioP1;P2;durP2;ratioP2
9294;SDS011;4686;44.496;11.324;2023-11-21T00:00:14;62.00;;;48.37;;
9294;SDS011;4686;44.496;11.324;2023-11-21T00:02:42;60.97;;;50.03;;
9294;SDS011;4686;44.496;11.324;2023-11-21T00:05:09;61.17;;;51.03;;
9294;SDS011;4686;44.496;11.324;2023-11-21T00:07:40;70.03;;;53.67;;
9294;SDS011;4686;44.496;11.324;2023-11-21T00:10:08;65.27;;;52.33;;
9294;SDS011;4686;44.496;11.324;2023-11-21T00:12:36;64.07;;;53.67;;
9294;SDS011;4686;44.496;11.324;2023-11-21T00:15:03;66.77;;;53.27;;
9294;SDS011;4686;44.496;11.324;2023-11-21T00:17:35;70.17;;;54.50;;
9294;SDS011;4686;44.496;11.324;2023-11-21T00:20:03;66.30;;;53.70;;
9294;SDS011;4686;44.496;11.324;2023-11-21T00:22:31;65.53;;;53.57;;
9294;SDS011;4686;44.496;11.324;2023-11-21T00:25:00;67.30;;;55.87;;
9294;SDS011;4686;44.496;11.324;2023-11-21T00:27:29;69.23;;;55.17;;
9294;SDS011;4686;44.496;11.324;2023-11-21T00:29:56;68.93;;;53.80;;
9294;SDS011;4686;44.496;11.324;2023-11-21T00:32:23;69.97;;;55.23;;
9294;SDS011;4686;44.496;11.324;2023-11-21T01:04:17;66.70;;;54.03;;
9294;SDS011;4686;44.496;11.324;2023-11-21T01:06:45;71.07;;;54.33;;
9294;SDS011;4686;44.496;11.324;2023-11-21T01:09:12;64.67;;;52.97;;
9294;SDS011;4686;44.496;11.324;2023-11-21T01:11:39;69.07;;;55.23;;
9294;SDS011;4686;44.496;11.324;2023-11-21T01:14:06;70.70;;;54.70;;
9294;SDS011;4686;44.496;11.324;2023-11-21T01:16:34;66.57;;;54.50;;
9294;SDS011;4686;44.496;11.324;2023-11-21T01:19:01;64.13;;;54.00;;
9294;SDS011;4686;44.496;11.324;2023-11-21T01:21:31;70.00;;;54.17;;
9294;SDS011;4686;44.496;11.324;2023-11-21T01:23:59;79.33;;;53.60;;
9294;SDS011;4686;44.496;11.324;2023-11-21T01:26:26;71.77;;;54.17;;
9294;SDS011;4686;44.496;11.324;2023-11-21T01:28:53;63.07;;;51.10;;
9294;SDS011;4686;44.496;11.324;2023-11-21T01:31:20;67.40;;;54.77;;
9294;SDS011;4686;44.496;11.324;2023-11-21T01:33:48;64.90;;;52.50;;
9294;SDS011;4686;44.496;11.324;2023-11-21T01:36:15;66.20;;;51.13;;
9294;SDS011;4686;44.496;11.324;2023-11-21T01:38:43;74.63;;;53.97;;
9294;SDS011;4686;44.496;11.324;2023-11-21T01:41:11;65.50;;;53.57;;
9294;SDS011;4686;44.496;11.324;2023-11-21T01:43:40;64.67;;;49.60;;
9294;SDS011;4686;44.496;11.324;2023-11-21T01:46:08;60.20;;;50.10;;
9294;SDS011;4686;44.496;11.324;2023-11-21T01:48:36;59.70;;;48.33;;
9294;SDS011;4686;44.496;11.324;2023-11-21T01:51:03;59.90;;;48.47;;
9294;SDS011;4686;44.496;11.324;2023-11-21T01:53:31;62.17;;;47.47;;
9294;SDS011;4686;44.496;11.324;2023-11-21T01:56:00;61.67;;;48.63;;
9294;SDS011;4686;44.496;11.324;2023-11-21T01:58:27;62.57;;;46.60;;
9294;SDS011;4686;44.496;11.324;2023-11-21T02:00:54;59.87;;;49.07;;
9294;SDS011;4686;44.496;11.324;2023-11-21T02:03:21;55.33;;;46.17;;
9294;SDS011;4686;44.496;11.324;2023-11-21T02:05:48;61.97;;;46.03;;
9294;SDS011;4686;44.496;11.324;2023-11-21T02:08:16;60.37;;;48.03;;
9294;SDS011;4686;44.496;11.324;2023-11-21T02:10:44;60.37;;;45.10;;
9294;SDS011;4686;44.496;11.324;2023-11-21T02:13:14;61.43;;;47.03;;
9294;SDS011;4686;44.496;11.324;2023-11-21T02:15:41;65.07;;;51.10;;
9294;SDS011;4686;44.496;11.324;2023-11-21T02:18:09;65.03;;;50.53;;
9294;SDS011;4686;44.496;11.324;2023-11-21T02:20:36;67.10;;;51.67;;
9294;SDS011;4686;44.496;11.324;2023-11-21T02:23:08;65.13;;;50.93;;
9294;SDS011;4686;44.496;11.324;2023-11-21T02:25:35;67.30;;;52.97;;
9294;SDS011;4686;44.496;11.324;2023-11-21T02:28:03;66.67;;;52.67;;
9294;SDS011;4686;44.496;11.324;2023-11-21T02:30:32;66.73;;;50.80;;
9294;SDS011;4686;44.496;11.324;2023-11-21T02:32:59;59.20;;;49.37;;
9294;SDS011;4686;44.496;11.324;2023-11-21T02:35:27;58.60;;;49.23;;
9294;SDS011;4686;44.496;11.324;2023-11-21T02:37:56;66.83;;;50.70;;
9294;SDS011;4686;44.496;11.324;2023-11-21T02:40:24;66.27;;;50.13;;
9294;SDS011;4686;44.496;11.324;2023-11-21T02:42:52;60.60;;;48.73;;
9294;SDS011;4686;44.496;11.324;2023-11-21T02:45:19;68.03;;;50.50;;
9294;SDS011;4686;44.496;11.324;2023-11-21T02:47:47;70.33;;;50.53;;
9294;SDS011;4686;44.496;11.324;2023-11-21T02:50:15;61.17;;;49.23;;
9294;SDS011;4686;44.496;11.324;2023-11-21T02:52:44;67.73;;;51.97;;
9294;SDS011;4686;44.496;11.324;2023-11-21T02:55:11;67.80;;;51.90;;
9294;SDS011;4686;44.496;11.324;2023-11-21T02:57:40;66.43;;;50.93;;
9294;SDS011;4686;44.496;11.324;2023-11-21T03:00:07;63.83;;;52.53;;
9294;SDS011;4686;44.496;11.324;2023-11-21T03:02:38;68.83;;;51.37;;
9294;SDS011;4686;44.496;11.324;2023-11-21T03:05:06;63.63;;;51.27;;
9294;SDS011;4686;44.496;11.324;2023-11-21T03:07:34;62.23;;;53.20;;
9294;SDS011;4686;44.496;11.324;2023-11-21T03:10:01;62.67;;;50.10;;
9294;SDS011;4686;44.496;11.324;2023-11-21T03:12:29;69.43;;;51.87;;
9294;SDS011;4686;44.496;11.324;2023-11-21T03:14:57;73.33;;;54.37;;
9294;SDS011;4686;44.496;11.324;2023-11-21T03:17:25;66.83;;;51.90;;
9294;SDS011;4686;44.496;11.324;2023-11-21T03:19:52;70.83;;;55.40;;
9294;SDS011;4686;44.496;11.324;2023-11-21T03:22:19;67.63;;;52.60;;
9294;SDS011;4686;44.496;11.324;2023-11-21T03:24:46;67.27;;;52.83;;
9294;SDS011;4686;44.496;11.324;2023-11-21T03:27:15;70.23;;;52.40;;
9294;SDS011;4686;44.496;11.324;2023-11-21T03:29:42;73.10;;;53.20;;
9294;SDS011;4686;44.496;11.324;2023-11-21T03:32:11;79.50;;;53.70;;
9294;SDS011;4686;44.496;11.324;2023-11-21T03:34:52;70.40;;;53.10;;
9294;SDS011;4686;44.496;11.324;2023-11-21T03:37:20;69.70;;;51.90;;
9294;SDS011;4686;44.496;11.324;2023-11-21T03:39:47;65.20;;;53.20;;
9294;SDS011;4686;44.496;11.324;2023-11-21T03:42:15;68.60;;;54.80;;
9294;SDS011;4686;44.496;11.324;2023-11-21T03:44:43;65.53;;;54.33;;
9294;SDS011;4686;44.496;11.324;2023-11-21T03:47:13;67.67;;;52.77;;
9294;SDS011;4686;44.496;11.324;2023-11-21T03:49:40;71.67;;;54.37;;
9294;SDS011;4686;44.496;11.324;2023-11-21T03:52:08;69.50;;;53.97;;
9294;SDS011;4686;44.496;11.324;2023-11-21T03:54:35;68.80;;;54.03;;
9294;SDS011;4686;44.496;11.324;2023-11-21T03:57:02;69.27;;;53.87;;
9294;SDS011;4686;44.496;11.324;2023-11-21T03:59:29;68.33;;;54.00;;
9294;SDS011;4686;44.496;11.324;2023-11-21T04:01:57;70.50;;;53.87;;
9294;SDS011;4686;44.496;11.324;2023-11-21T04:04:26;67.87;;;55.67;;
9294;SDS011;4686;44.496;11.324;2023-11-21T04:06:53;72.40;;;54.27;;
9294;SDS011;4686;44.496;11.324;2023-11-21T04:09:21;66.70;;;53.47;;
9294;SDS011;4686;44.496;11.324;2023-11-21T04:11:50;66.97;;;53.97;;
9294;SDS011;4686;44.496;11.324;2023-11-21T04:14:17;69.07;;;53.83;;
9294;SDS011;4686;44.496;11.324;2023-11-21T04:16:44;67.23;;;51.90;;
9294;SDS011;4686;44.496;11.324;2023-11-21T04:19:11;68.00;;;52.80;;
9294;SDS011;4686;44.496;11.324;2023-11-21T04:21:42;70.00;;;53.50;;
9294;SDS011;4686;44.496;11.324;2023-11-21T04:24:09;67.73;;;52.77;;
9294;SDS011;4686;44.496;11.324;2023-11-21T04:26:36;73.23;;;50.60;;
9294;SDS011;4686;44.496;11.324;2023-11-21T04:29:03;66.90;;;53.63;;
9294;SDS011;4686;44.496;11.324;2023-11-21T04:31:30;65.90;;;51.03;;
9294;SDS011;4686;44.496;11.324;2023-11-21T04:33:58;60.00;;;50.50;;
9294;SDS011;4686;44.496;11.324;2023-11-21T04:36:25;76.27;;;52.80;;
9294;SDS011;4686;44.496;11.324;2023-11-21T04:38:54;70.33;;;50.83;;
9294;SDS011;4686;44.496;11.324;2023-11-21T04:41:21;61.30;;;50.40;;
9294;SDS011;4686;44.496;11.324;2023-11-21T04:43:48;66.10;;;53.47;;
9294;SDS011;4686;44.496;11.324;2023-11-21T04:46:16;70.83;;;53.80;;
9294;SDS011;4686;44.496;11.324;2023-11-21T04:48:43;66.13;;;52.90;;
9294;SDS011;4686;44.496;11.324;2023-11-21T04:51:10;65.03;;;53.67;;
9294;SDS011;4686;44.496;11.324;2023-11-21T04:53:38;64.90;;;51.83;;
9294;SDS011;4686;44.496;11.324;2023-11-21T04:56:07;68.00;;;52.53;;
9294;SDS011;4686;44.496;11.324;2023-11-21T04:58:34;62.40;;;50.87;;
9294;SDS011;4686;44.496;11.324;2023-11-21T05:01:01;71.33;;;54.00;;
9294;SDS011;4686;44.496;11.324;2023-11-21T05:03:29;73.57;;;55.13;;
9294;SDS011;4686;44.496;11.324;2023-11-21T05:05:57;67.53;;;52.77;;
9294;SDS011;4686;44.496;11.324;2023-11-21T05:08:25;68.20;;;54.20;;
9294;SDS011;4686;44.496;11.324;2023-11-21T05:10:52;66.27;;;50.87;;
9294;SDS011;4686;44.496;11.324;2023-11-21T05:13:21;68.60;;;52.40;;
9294;SDS011;4686;44.496;11.324;2023-11-21T05:15:52;65.17;;;52.23;;
9294;SDS011;4686;44.496;11.324;2023-11-21T05:18:19;70.80;;;54.13;;
9294;SDS011;4686;44.496;11.324;2023-11-21T05:20:46;67.10;;;52.57;;
9294;SDS011;4686;44.496;11.324;2023-11-21T05:23:14;72.47;;;54.20;;
9294;SDS011;4686;44.496;11.324;2023-11-21T05:25:41;66.63;;;52.57;;
9294;SDS011;4686;44.496;11.324;2023-11-21T05:28:08;65.30;;;51.80;;
9294;SDS011;4686;44.496;11.324;2023-11-21T05:30:37;73.97;;;53.47;;
9294;SDS011;4686;44.496;11.324;2023-11-21T05:33:04;61.67;;;50.83;;
9294;SDS011;4686;44.496;11.324;2023-11-21T05:35:31;69.90;;;54.43;;
9294;SDS011;4686;44.496;11.324;2023-11-21T05:37:58;75.73;;;53.60;;
9294;SDS011;4686;44.496;11.324;2023-11-21T05:40:26;69.10;;;52.30;;
9294;SDS011;4686;44.496;11.324;2023-11-21T05:42:55;66.23;;;52.50;;
9294;SDS011;4686;44.496;11.324;2023-11-21T05:45:22;72.20;;;51.57;;
9294;SDS011;4686;44.496;11.324;2023-11-21T05:47:50;64.33;;;50.77;;
9294;SDS011;4686;44.496;11.324;2023-11-21T05:50:18;64.43;;;52.50;;
9294;SDS011;4686;44.496;11.324;2023-11-21T05:52:45;76.50;;;52.07;;
9294;SDS011;4686;44.496;11.324;2023-11-21T05:55:13;74.80;;;53.77;;
9294;SDS011;4686;44.496;11.324;2023-11-21T05:57:41;60.37;;;49.47;;
9294;SDS011;4686;44.496;11.324;2023-11-21T06:00:09;64.70;;;50.57;;
9294;SDS011;4686;44.496;11.324;2023-11-21T06:02:40;84.07;;;51.87;;
9294;SDS011;4686;44.496;11.324;2023-11-21T06:05:09;77.63;;;51.30;;
9294;SDS011;4686;44.496;11.324;2023-11-21T06:07:37;75.30;;;53.87;;
9294;SDS011;4686;44.496;11.324;2023-11-21T06:10:05;70.37;;;52.17;;
9294;SDS011;4686;44.496;11.324;2023-11-21T06:12:34;67.67;;;51.83;;
9294;SDS011;4686;44.496;11.324;2023-11-21T06:15:01;71.37;;;53.17;;
9294;SDS011;4686;44.496;11.324;2023-11-21T06:17:30;73.10;;;53.07;;
9294;SDS011;4686;44.496;11.324;2023-11-21T06:19:57;68.87;;;53.97;;
9294;SDS011;4686;44.496;11.324;2023-11-21T06:22:27;69.30;;;55.03;;
9294;SDS011;4686;44.496;11.324;2023-11-21T06:24:55;68.53;;;53.13;;
9294;SDS011;4686;44.496;11.324;2023-11-21T06:27:23;71.50;;;51.83;;
9294;SDS011;4686;44.496;11.324;2023-11-21T06:29:50;67.67;;;53.73;;
9294;SDS011;4686;44.496;11.324;2023-11-21T06:32:17;70.20;;;52.10;;
9294;SDS011;4686;44.496;11.324;2023-11-21T06:34:45;80.53;;;57.30;;
9294;SDS011;4686;44.496;11.324;2023-11-21T06:37:14;66.70;;;52.53;;
9294;SDS011;4686;44.496;11.324;2023-11-21T06:39:46;70.63;;;53.70;;
9294;SDS011;4686;44.496;11.324;2023-11-21T06:42:13;72.90;;;54.23;;
9294;SDS011;4686;44.496;11.324;2023-11-21T06:44:40;77.07;;;55.50;;
9294;SDS011;4686;44.496;11.324;2023-11-21T06:47:08;76.60;;;54.83;;
9294;SDS011;4686;44.496;11.324;2023-11-21T06:49:36;74.33;;;55.60;;
9294;SDS011;4686;44.496;11.324;2023-11-21T06:52:03;75.60;;;56.37;;
9294;SDS011;4686;44.496;11.324;2023-11-21T06:54:30;71.10;;;54.47;;
9294;SDS011;4686;44.496;11.324;2023-11-21T06:56:59;81.93;;;56.73;;
9294;SDS011;4686;44.496;11.324;2023-11-21T06:59:28;75.73;;;55.20;;
9294;SDS011;4686;44.496;11.324;2023-11-21T07:01:55;71.03;;;54.03;;
9294;SDS011;4686;44.496;11.324;2023-11-21T07:04:23;72.63;;;54.47;;
9294;SDS011;4686;44.496;11.324;2023-11-21T07:06:50;72.40;;;54.20;;
9294;SDS011;4686;44.496;11.324;2023-11-21T07:09:17;69.97;;;52.43;;
9294;SDS011;4686;44.496;11.324;2023-11-21T07:11:47;68.80;;;52.30;;
9294;SDS011;4686;44.496;11.324;2023-11-21T07:14:15;70.60;;;51.57;;
9294;SDS011;4686;44.496;11.324;2023-11-21T07:16:44;73.17;;;53.10;;
9294;SDS011;4686;44.496;11.324;2023-11-21T07:19:12;70.90;;;53.37;;
9294;SDS011;4686;44.496;11.324;2023-11-21T07:21:39;75.97;;;54.70;;
9294;SDS011;4686;44.496;11.324;2023-11-21T07:24:07;73.90;;;52.80;;
9294;SDS011;4686;44.496;11.324;2023-11-21T07:26:34;71.17;;;54.43;;
9294;SDS011;4686;44.496;11.324;2023-11-21T07:29:02;70.03;;;52.30;;
9294;SDS011;4686;44.496;11.324;2023-11-21T07:31:31;70.80;;;51.17;;
9294;SDS011;4686;44.496;11.324;2023-11-21T07:33:59;75.67;;;51.83;;
9294;SDS011;4686;44.496;11.324;2023-11-21T07:36:26;70.03;;;50.37;;
9294;SDS011;4686;44.496;11.324;2023-11-21T07:38:54;81.63;;;55.63;;
9294;SDS011;4686;44.496;11.324;2023-11-21T07:41:21;77.93;;;53.30;;
9294;SDS011;4686;44.496;11.324;2023-11-21T07:43:48;71.50;;;52.93;;
9294;SDS011;4686;44.496;11.324;2023-11-21T07:46:15;78.50;;;53.37;;
9294;SDS011;4686;44.496;11.324;2023-11-21T07:48:44;76.07;;;54.50;;
9294;SDS011;4686;44.496;11.324;2023-11-21T07:51:11;76.27;;;54.50;;
9294;SDS011;4686;44.496;11.324;2023-11-21T07:53:39;85.27;;;53.90;;
9294;SDS011;4686;44.496;11.324;2023-11-21T07:56:06;89.03;;;54.33;;
9294;SDS011;4686;44.496;11.324;2023-11-21T07:58:34;76.13;;;55.07;;
9294;SDS011;4686;44.496;11.324;2023-11-21T08:01:01;80.30;;;53.37;;
9294;SDS011;4686;44.496;11.324;2023-11-21T08:03:29;74.10;;;53.70;;
9294;SDS011;4686;44.496;11.324;2023-11-21T08:05:58;79.97;;;53.03;;
9294;SDS011;4686;44.496;11.324;2023-11-21T08:08:25;81.73;;;54.57;;
9294;SDS011;4686;44.496;11.324;2023-11-21T08:10:53;81.97;;;55.70;;
9294;SDS011;4686;44.496;11.324;2023-11-21T08:13:22;81.20;;;55.30;;
9294;SDS011;4686;44.496;11.324;2023-11-21T08:15:50;77.63;;;50.63;;
9294;SDS011;4686;44.496;11.324;2023-11-21T08:18:17;86.50;;;53.00;;
9294;SDS011;4686;44.496;11.324;2023-11-21T08:20:44;77.77;;;54.77;;
9294;SDS011;4686;44.496;11.324;2023-11-21T08:23:15;89.80;;;56.80;;
9294;SDS011;4686;44.496;11.324;2023-11-21T08:25:43;74.20;;;56.47;;
9294;SDS011;4686;44.496;11.324;2023-11-21T08:28:14;84.50;;;58.87;;
9294;SDS011;4686;44.496;11.324;2023-11-21T08:30:41;79.40;;;59.63;;
9294;SDS011;4686;44.496;11.324;2023-11-21T08:33:09;83.07;;;60.17;;
9294;SDS011;4686;44.496;11.324;2023-11-21T08:35:37;80.90;;;60.87;;
9294;SDS011;4686;44.496;11.324;2023-11-21T08:38:04;79.27;;;61.10;;
9294;SDS011;4686;44.496;11.324;2023-11-21T08:40:34;88.60;;;62.83;;
9294;SDS011;4686;44.496;11.324;2023-11-21T08:43:01;86.57;;;62.63;;
9294;SDS011;4686;44.496;11.324;2023-11-21T08:45:29;89.27;;;64.10;;
9294;SDS011;4686;44.496;11.324;2023-11-21T08:47:59;93.57;;;65.50;;
9294;SDS011;4686;44.496;11.324;2023-11-21T08:50:26;96.77;;;67.63;;
9294;SDS011;4686;44.496;11.324;2023-11-21T08:52:54;97.37;;;69.27;;
9294;SDS011;4686;44.496;11.324;2023-11-21T08:55:21;92.97;;;68.43;;
9294;SDS011;4686;44.496;11.324;2023-11-21T08:57:50;100.50;;;76.97;;
9294;SDS011;4686;44.496;11.324;2023-11-21T09:00:17;100.70;;;78.30;;
9294;SDS011;4686;44.496;11.324;2023-11-21T09:02:45;106.17;;;79.83;;
9294;SDS011;4686;44.496;11.324;2023-11-21T09:05:12;106.63;;;81.17;;
9294;SDS011;4686;44.496;11.324;2023-11-21T09:07:40;112.53;;;88.20;;
9294;SDS011;4686;44.496;11.324;2023-11-21T09:10:08;113.97;;;89.37;;
9294;SDS011;4686;44.496;11.324;2023-11-21T09:12:35;121.80;;;92.50;;
9294;SDS011;4686;44.496;11.324;2023-11-21T09:15:06;132.70;;;90.77;;
9294;SDS011;4686;44.496;11.324;2023-11-21T09:17:35;115.10;;;85.43;;
9294;SDS011;4686;44.496;11.324;2023-11-21T09:20:02;112.07;;;86.90;;
9294;SDS011;4686;44.496;11.324;2023-11-21T09:22:30;113.53;;;86.97;;
9294;SDS011;4686;44.496;11.324;2023-11-21T09:24:58;113.67;;;86.77;;
9294;SDS011;4686;44.496;11.324;2023-11-21T09:27:25;110.23;;;87.37;;
9294;SDS011;4686;44.496;11.324;2023-11-21T09:29:52;110.63;;;87.00;;
9294;SDS011;4686;44.496;11.324;2023-11-21T09:32:21;113.40;;;86.20;;
9294;SDS011;4686;44.496;11.324;2023-11-21T09:34:49;110.00;;;86.90;;
9294;SDS011;4686;44.496;11.324;2023-11-21T09:37:17;110.87;;;86.37;;
9294;SDS011;4686;44.496;11.324;2023-11-21T09:39:44;110.83;;;88.40;;
9294;SDS011;4686;44.496;11.324;2023-11-21T09:42:14;122.93;;;86.77;;
9294;SDS011;4686;44.496;11.324;2023-11-21T09:44:44;125.53;;;87.50;;
9294;SDS011;4686;44.496;11.324;2023-11-21T09:47:14;115.13;;;88.33;;
9294;SDS011;4686;44.496;11.324;2023-11-21T09:49:44;110.67;;;81.87;;
9294;SDS011;4686;44.496;11.324;2023-11-21T09:52:12;107.27;;;83.27;;
9294;SDS011;4686;44.496;11.324;2023-11-21T09:54:43;109.87;;;85.17;;
9294;SDS011;4686;44.496;11.324;2023-11-21T09:57:10;116.33;;;87.83;;
9294;SDS011;4686;44.496;11.324;2023-11-21T09:59:37;109.50;;;87.50;;
9294;SDS011;4686;44.496;11.324;2023-11-21T10:02:05;109.87;;;83.17;;
9294;SDS011;4686;44.496;11.324;2023-11-21T10:04:37;113.00;;;86.17;;
9294;SDS011;4686;44.496;11.324;2023-11-21T10:07:06;118.20;;;84.47;;
9294;SDS011;4686;44.496;11.324;2023-11-21T10:09:34;129.90;;;87.50;;
9294;SDS011;4686;44.496;11.324;2023-11-21T10:12:01;109.20;;;84.40;;
9294;SDS011;4686;44.496;11.324;2023-11-21T10:14:31;112.63;;;86.70;;
9294;SDS011;4686;44.496;11.324;2023-11-21T10:16:59;113.83;;;87.30;;
9294;SDS011;4686;44.496;11.324;2023-11-21T10:19:27;110.77;;;87.00;;
9294;SDS011;4686;44.496;11.324;2023-11-21T10:21:54;113.87;;;87.77;;
9294;SDS011;4686;44.496;11.324;2023-11-21T10:24:29;117.13;;;88.10;;
9294;SDS011;4686;44.496;11.324;2023-11-21T10:27:02;121.47;;;88.20;;
9294;SDS011;4686;44.496;11.324;2023-11-21T10:29:30;118.50;;;87.80;;
9294;SDS011;4686;44.496;11.324;2023-11-21T10:32:01;113.77;;;87.10;;
9294;SDS011;4686;44.496;11.324;2023-11-21T10:34:28;111.13;;;85.70;;
9294;SDS011;4686;44.496;11.324;2023-11-21T10:36:55;117.80;;;85.87;;
9294;SDS011;4686;44.496;11.324;2023-11-21T10:39:23;124.27;;;90.00;;
9294;SDS011;4686;44.496;11.324;2023-11-21T10:41:54;119.63;;;89.30;;
9294;SDS011;4686;44.496;11.324;2023-11-21T10:44:22;111.40;;;84.00;;
9294;SDS011;4686;44.496;11.324;2023-11-21T10:46:50;114.63;;;83.37;;
9294;SDS011;4686;44.496;11.324;2023-11-21T10:49:21;112.87;;;81.80;;
9294;SDS011;4686;44.496;11.324;2023-11-21T10:51:50;111.67;;;81.50;;
9294;SDS011;4686;44.496;11.324;2023-11-21T10:54:18;105.97;;;78.63;;
9294;SDS011;4686;44.496;11.324;2023-11-21T10:56:47;110.03;;;77.70;;
9294;SDS011;4686;44.496;11.324;2023-11-21T10:59:17;98.97;;;72.00;;
9294;SDS011;4686;44.496;11.324;2023-11-21T11:01:46;87.87;;;65.83;;
9294;SDS011;4686;44.496;11.324;2023-11-21T11:04:15;84.60;;;62.30;;
9294;SDS011;4686;44.496;11.324;2023-11-21T11:06:43;62.00;;;47.07;;
9294;SDS011;4686;44.496;11.324;2023-11-21T11:09:10;73.10;;;54.83;;
9294;SDS011;4686;44.496;11.324;2023-11-21T11:11:39;71.37;;;50.97;;
9294;SDS011;4686;44.496;11.324;2023-11-21T11:14:10;66.77;;;47.93;;
9294;SDS011;4686;44.496;11.324;2023-11-21T11:16:39;63.93;;;50.50;;
9294;SDS011;4686;44.496;11.324;2023-11-21T11:19:08;75.10;;;54.47;;
9294;SDS011;4686;44.496;11.324;2023-11-21T11:21:41;79.27;;;55.37;;
9294;SDS011;4686;44.496;11.324;2023-11-21T11:24:20;78.37;;;57.63;;
9294;SDS011;4686;44.496;11.324;2023-11-21T11:26:50;82.37;;;56.57;;
9294;SDS011;4686;44.496;11.324;2023-11-21T11:29:23;75.67;;;56.10;;
9294;SDS011;4686;44.496;11.324;2023-11-21T11:32:02;72.30;;;54.70;;
9294;SDS011;4686;44.496;11.324;2023-11-21T11:34:31;71.90;;;54.70;;
9294;SDS011;4686;44.496;11.324;2023-11-21T11:37:00;67.40;;;52.70;;
9294;SDS011;4686;44.496;11.324;2023-11-21T11:39:29;74.10;;;51.57;;
9294;SDS011;4686;44.496;11.324;2023-11-21T11:41:56;66.60;;;50.53;;
9294;SDS011;4686;44.496;11.324;2023-11-21T11:47:14;60.90;;;45.73;;
9294;SDS011;4686;44.496;11.324;2023-11-21T11:49:54;61.97;;;47.40;;
9294;SDS011;4686;44.496;11.324;2023-11-21T11:52:34;56.90;;;43.40;;
9294;SDS011;4686;44.496;11.324;2023-11-21T11:55:01;60.47;;;48.60;;
9294;SDS011;4686;44.496;11.324;2023-11-21T11:57:29;67.20;;;47.20;;
9294;SDS011;4686;44.496;11.324;2023-11-21T12:00:08;67.27;;;48.70;;
9294;SDS011;4686;44.496;11.324;2023-11-21T12:02:38;70.67;;;47.30;;
9294;SDS011;4686;44.496;11.324;2023-11-21T12:05:09;62.30;;;46.27;;
9294;SDS011;4686;44.496;11.324;2023-11-21T12:07:43;62.20;;;47.50;;
9294;SDS011;4686;44.496;11.324;2023-11-21T12:10:12;64.57;;;46.30;;
9294;SDS011;4686;44.496;11.324;2023-11-21T12:12:42;60.30;;;45.23;;
9294;SDS011;4686;44.496;11.324;2023-11-21T12:15:10;61.67;;;48.07;;
9294;SDS011;4686;44.496;11.324;2023-11-21T12:17:39;62.53;;;46.03;;
9294;SDS011;4686;44.496;11.324;2023-11-21T12:20:07;61.83;;;46.23;;
9294;SDS011;4686;44.496;11.324;2023-11-21T12:22:43;63.80;;;45.23;;
9294;SDS011;4686;44.496;11.324;2023-11-21T12:25:12;69.60;;;45.67;;
9294;SDS011;4686;44.496;11.324;2023-11-21T12:27:41;59.93;;;45.70;;
9294;SDS011;4686;44.496;11.324;2023-11-21T12:30:10;60.10;;;44.17;;
9294;SDS011;4686;44.496;11.324;2023-11-21T12:32:42;59.90;;;45.43;;
9294;SDS011;4686;44.496;11.324;2023-11-21T12:35:10;61.67;;;45.50;;
9294;SDS011;4686;44.496;11.324;2023-11-21T12:37:38;60.47;;;47.70;;
9294;SDS011;4686;44.496;11.324;2023-11-21T12:40:08;60.93;;;47.20;;
9294;SDS011;4686;44.496;11.324;2023-11-21T12:42:37;60.07;;;47.20;;
9294;SDS011;4686;44.496;11.324;2023-11-21T12:45:08;59.47;;;46.67;;
9294;SDS011;4686;44.496;11.324;2023-11-21T12:47:43;57.83;;;44.40;;
9294;SDS011;4686;44.496;11.324;2023-11-21T12:50:11;65.57;;;47.97;;
9294;SDS011;4686;44.496;11.324;2023-11-21T12:52:40;58.33;;;45.40;;
9294;SDS011;4686;44.496;11.324;2023-11-21T12:55:09;64.87;;;47.40;;
9294;SDS011;4686;44.496;11.324;2023-11-21T12:57:40;66.17;;;46.60;;
9294;SDS011;4686;44.496;11.324;2023-11-21T13:00:08;59.67;;;46.10;;
9294;SDS011;4686;44.496;11.324;2023-11-21T13:02:38;64.83;;;47.50;;
9294;SDS011;4686;44.496;11.324;2023-11-21T13:05:08;67.17;;;48.13;;
9294;SDS011;4686;44.496;11.324;2023-11-21T13:07:46;66.73;;;47.53;;
9294;SDS011;4686;44.496;11.324;2023-11-21T13:10:15;63.73;;;49.40;;
9294;SDS011;4686;44.496;11.324;2023-11-21T13:12:43;63.67;;;47.63;;
9294;SDS011;4686;44.496;11.324;2023-11-21T13:15:13;65.43;;;49.40;;
9294;SDS011;4686;44.496;11.324;2023-11-21T13:17:42;60.33;;;47.43;;
9294;SDS011;4686;44.496;11.324;2023-11-21T13:20:12;63.30;;;49.20;;
9294;SDS011;4686;44.496;11.324;2023-11-21T13:22:44;69.70;;;48.33;;
9294;SDS011;4686;44.496;11.324;2023-11-21T13:25:12;64.93;;;48.03;;
9294;SDS011;4686;44.496;11.324;2023-11-21T13:27:40;61.73;;;46.63;;
9294;SDS011;4686;44.496;11.324;2023-11-21T13:30:08;64.17;;;49.17;;
9294;SDS011;4686;44.496;11.324;2023-11-21T13:32:36;64.70;;;48.60;;
9294;SDS011;4686;44.496;11.324;2023-11-21T13:35:03;64.03;;;46.77;;
9294;SDS011;4686;44.496;11.324;2023-11-21T13:37:34;63.83;;;48.40;;
9294;SDS011;4686;44.496;11.324;2023-11-21T13:40:03;65.23;;;46.77;;
9294;SDS011;4686;44.496;11.324;2023-11-21T13:42:39;59.10;;;46.57;;
9294;SDS011;4686;44.496;11.324;2023-11-21T13:45:08;61.30;;;46.70;;
9294;SDS011;4686;44.496;11.324;2023-11-21T13:47:37;58.60;;;45.33;;
9294;SDS011;4686;44.496;11.324;2023-11-21T13:50:07;64.40;;;47.17;;
9294;SDS011;4686;44.496;11.324;2023-11-21T13:52:44;65.70;;;48.40;;
9294;SDS011;4686;44.496;11.324;2023-11-21T13:55:11;58.03;;;47.40;;
9294;SDS011;4686;44.496;11.324;2023-11-21T13:57:41;57.93;;;45.70;;
9294;SDS011;4686;44.496;11.324;2023-11-21T14:00:12;64.00;;;45.90;;
9294;SDS011;4686;44.496;11.324;2023-11-21T14:03:00;65.50;;;47.17;;
9294;SDS011;4686;44.496;11.324;2023-11-21T14:05:33;61.07;;;46.83;;
9294;SDS011;4686;44.496;11.324;2023-11-21T14:08:02;67.47;;;48.83;;
9294;SDS011;4686;44.496;11.324;2023-11-21T14:10:30;61.87;;;48.37;;
9294;SDS011;4686;44.496;11.324;2023-11-21T14:13:05;59.77;;;46.20;;
9294;SDS011;4686;44.496;11.324;2023-11-21T14:15:32;63.90;;;48.30;;
9294;SDS011;4686;44.496;11.324;2023-11-21T14:18:03;62.23;;;48.47;;
9294;SDS011;4686;44.496;11.324;2023-11-21T14:20:36;64.23;;;45.53;;
9294;SDS011;4686;44.496;11.324;2023-11-21T14:23:06;61.80;;;47.80;;
9294;SDS011;4686;44.496;11.324;2023-11-21T14:25:35;59.43;;;45.77;;
9294;SDS011;4686;44.496;11.324;2023-11-21T14:28:05;62.27;;;47.87;;
9294;SDS011;4686;44.496;11.324;2023-11-21T14:30:33;66.90;;;49.77;;
9294;SDS011;4686;44.496;11.324;2023-11-21T14:33:01;64.07;;;47.27;;
9294;SDS011;4686;44.496;11.324;2023-11-21T14:35:29;68.50;;;50.93;;
9294;SDS011;4686;44.496;11.324;2023-11-21T14:37:57;63.57;;;48.90;;
9294;SDS011;4686;44.496;11.324;2023-11-21T14:40:27;63.30;;;49.43;;
9294;SDS011;4686;44.496;11.324;2023-11-21T14:42:58;61.97;;;47.50;;
9294;SDS011;4686;44.496;11.324;2023-11-21T14:45:27;60.80;;;45.73;;
9294;SDS011;4686;44.496;11.324;2023-11-21T14:47:55;58.30;;;47.23;;
9294;SDS011;4686;44.496;11.324;2023-11-21T14:50:31;60.37;;;48.13;;
9294;SDS011;4686;44.496;11.324;2023-11-21T14:53:21;64.53;;;47.70;;
9294;SDS011;4686;44.496;11.324;2023-11-21T14:56:12;60.70;;;45.33;;
9294;SDS011;4686;44.496;11.324;2023-11-21T14:58:46;61.67;;;46.50;;
9294;SDS011;4686;44.496;11.324;2023-11-21T15:01:14;60.90;;;47.33;;
9294;SDS011;4686;44.496;11.324;2023-11-21T15:03:49;57.23;;;46.17;;
9294;SDS011;4686;44.496;11.324;2023-11-21T15:06:20;61.73;;;47.53;;
9294;SDS011;4686;44.496;11.324;2023-11-21T15:08:56;62.93;;;45.90;;
9294;SDS011;4686;44.496;11.324;2023-11-21T15:11:51;62.50;;;46.60;;
9294;SDS011;4686;44.496;11.324;2023-11-21T15:14:23;58.33;;;44.20;;